PWSweather.com
Personal Weather Stations
Station Observations
IROGLAN40
AalgaardNO 4330

AalgaardNO 4330

Lat: 58.773, Lon: 5.846

Elevation: 326

Station Type: Davis Vanatge Pro2

Latest ConditionsUpdated 4:00:01 PM GMT+01:01 Thursday, Aug 28, 2014
Currently Today's Max Today's Min Today's Average
Temperature 64.7°F18.2°C 66.8°F19.3°C 51.5°F10.8°C 58.2°F14.6°C
Dew Point 53.5°F11.9°C 55.7°F13.2°C 49.5°F9.7°C 52.2°F11.2°C
Winds 3.5 mph SE5.6 kmh SE 4.7 mph S7.6 kmh S - 2.2 mph 3.5 kmh
Wind Gusts 5.0 mph8.0 kmh 9.0 mph14.5 kmh - -
Humidity 67% 94% 62% 82%
Pressure 29.92 in1013.2 mb 29.95 in1014.2 mb 29.92 in1013.2 mb -
Hour Temp Dew Point Humidity Winds Wind Gusts Pressure Precip Precip Rate Daily Precip Total
04:00 PM 64.7°F18.2°C 53.5°F11.9°C 67% 3.5 mph SE5.6 kmh SE 5.0 mph8.0 kmh 29.92 in1013.2 mb 0.00 in0.0 mm 0.00 in/hr0.0 mm/hr 0.00 in0.0 mm
03:50 PM 65.2°F18.4°C 54.4°F12.4°C 68% 2.6 mph S4.2 kmh S 4.0 mph6.4 kmh 29.92 in1013.2 mb 0.00 in0.0 mm 0.00 in/hr0.0 mm/hr 0.00 in0.0 mm
03:40 PM 65.4°F18.6°C 54.5°F12.5°C 68% 3.1 mph SSW5.0 kmh SSW 7.0 mph11.3 kmh 29.92 in1013.2 mb 0.00 in0.0 mm 0.00 in/hr0.0 mm/hr 0.00 in0.0 mm
03:30 PM 66.3°F19.1°C 55.0°F12.8°C 67% 2.3 mph S3.7 kmh S 3.0 mph4.8 kmh 29.93 in1013.5 mb 0.00 in0.0 mm 0.00 in/hr0.0 mm/hr 0.00 in0.0 mm
03:20 PM 65.4°F18.6°C 55.0°F12.8°C 69% 3.3 mph SSW5.3 kmh SSW 7.0 mph11.3 kmh 29.93 in1013.5 mb 0.00 in0.0 mm 0.00 in/hr0.0 mm/hr 0.00 in0.0 mm
03:10 PM 64.1°F17.8°C 53.7°F12.1°C 69% 3.5 mph WSW5.6 kmh WSW 5.0 mph8.0 kmh 29.93 in1013.5 mb 0.00 in0.0 mm 0.00 in/hr0.0 mm/hr 0.00 in0.0 mm
03:00 PM 66.1°F18.9°C 54.8°F12.7°C 67% 2.6 mph WNW4.2 kmh WNW 8.0 mph12.9 kmh 29.93 in1013.5 mb 0.00 in0.0 mm 0.00 in/hr0.0 mm/hr 0.00 in0.0 mm
02:50 PM 66.2°F19.0°C 55.3°F12.9°C 68% 1.6 mph NNE2.6 kmh NNE 5.0 mph8.0 kmh 29.93 in1013.5 mb 0.00 in0.0 mm 0.00 in/hr0.0 mm/hr 0.00 in0.0 mm
02:40 PM 65.2°F18.4°C 54.8°F12.7°C 69% 4.1 mph SW6.6 kmh SW 6.0 mph9.7 kmh 29.93 in1013.5 mb 0.00 in0.0 mm 0.00 in/hr0.0 mm/hr 0.00 in0.0 mm
02:30 PM 65.8°F18.8°C 55.7°F13.2°C 70% 3.4 mph SW5.5 kmh SW 6.0 mph9.7 kmh 29.93 in1013.5 mb 0.00 in0.0 mm 0.00 in/hr0.0 mm/hr 0.00 in0.0 mm
02:20 PM 65.9°F18.8°C 55.0°F12.8°C 68% 1.2 mph SE1.9 kmh SE 2.0 mph3.2 kmh 29.93 in1013.5 mb 0.00 in0.0 mm 0.00 in/hr0.0 mm/hr 0.00 in0.0 mm
02:10 PM 66.5°F19.2°C 55.2°F12.9°C 67% 4.2 mph S6.8 kmh S 8.0 mph12.9 kmh 29.93 in1013.5 mb 0.00 in0.0 mm 0.00 in/hr0.0 mm/hr 0.00 in0.0 mm
02:00 PM 66.2°F19.0°C 54.5°F12.5°C 66% 2.3 mph S3.7 kmh S 6.0 mph9.7 kmh 29.93 in1013.5 mb 0.00 in0.0 mm 0.00 in/hr0.0 mm/hr 0.00 in0.0 mm
01:50 PM 66.5°F19.2°C 54.4°F12.4°C 65% 3.7 mph WNW6.0 kmh WNW 5.0 mph8.0 kmh 29.93 in1013.5 mb 0.00 in0.0 mm 0.00 in/hr0.0 mm/hr 0.00 in0.0 mm
01:40 PM 66.8°F19.3°C 53.3°F11.8°C 62% 3.6 mph WNW5.8 kmh WNW 6.0 mph9.7 kmh 29.93 in1013.5 mb 0.00 in0.0 mm 0.00 in/hr0.0 mm/hr 0.00 in0.0 mm
01:30 PM 66.7°F19.3°C 53.3°F11.8°C 62% 2.7 mph SW4.3 kmh SW 5.0 mph8.0 kmh 29.93 in1013.5 mb 0.00 in0.0 mm 0.00 in/hr0.0 mm/hr 0.00 in0.0 mm
01:20 PM 66.5°F19.2°C 53.1°F11.7°C 62% 4.2 mph S6.8 kmh S 8.0 mph12.9 kmh 29.93 in1013.5 mb 0.00 in0.0 mm 0.00 in/hr0.0 mm/hr 0.00 in0.0 mm
01:10 PM 66.5°F19.2°C 54.8°F12.7°C 66% 1.7 mph S2.7 kmh S 3.0 mph4.8 kmh 29.93 in1013.5 mb 0.00 in0.0 mm 0.00 in/hr0.0 mm/hr 0.00 in0.0 mm
01:00 PM 65.8°F18.8°C 52.9°F11.6°C 63% 3.9 mph S6.3 kmh S 8.0 mph12.9 kmh 29.94 in1013.9 mb 0.00 in0.0 mm 0.00 in/hr0.0 mm/hr 0.00 in0.0 mm
12:50 PM 65.8°F18.8°C 52.8°F11.6°C 63% 3.5 mph S5.6 kmh S 5.0 mph8.0 kmh 29.94 in1013.9 mb 0.00 in0.0 mm 0.00 in/hr0.0 mm/hr 0.00 in0.0 mm
12:40 PM 65.8°F18.8°C 53.7°F12.1°C 65% 3.4 mph SSW5.5 kmh SSW 6.0 mph9.7 kmh 29.94 in1013.9 mb 0.00 in0.0 mm 0.00 in/hr0.0 mm/hr 0.00 in0.0 mm
12:30 PM 65.2°F18.4°C 53.6°F12.0°C 66% 2.6 mph S4.2 kmh S 4.0 mph6.4 kmh 29.94 in1013.9 mb 0.00 in0.0 mm 0.00 in/hr0.0 mm/hr 0.00 in0.0 mm
12:20 PM 64.9°F18.3°C 53.3°F11.8°C 66% 4.7 mph S7.6 kmh S 9.0 mph14.5 kmh 29.94 in1013.9 mb 0.00 in0.0 mm 0.00 in/hr0.0 mm/hr 0.00 in0.0 mm
12:10 PM 65.4°F18.6°C 53.3°F11.8°C 65% 4.6 mph SSE7.4 kmh SSE 8.0 mph12.9 kmh 29.94 in1013.9 mb 0.00 in0.0 mm 0.00 in/hr0.0 mm/hr 0.00 in0.0 mm
12:00 PM 63.3°F17.4°C 53.0°F11.7°C 69% 3.7 mph SSE6.0 kmh SSE 5.0 mph8.0 kmh 29.94 in1013.9 mb 0.00 in0.0 mm 0.00 in/hr0.0 mm/hr 0.00 in0.0 mm
11:50 AM 63.4°F17.4°C 53.0°F11.7°C 69% 4.0 mph SE6.4 kmh SE 7.0 mph11.3 kmh 29.95 in1014.2 mb 0.00 in0.0 mm 0.00 in/hr0.0 mm/hr 0.00 in0.0 mm
11:40 AM 64.7°F18.2°C 53.9°F12.2°C 68% 3.4 mph S5.5 kmh S 4.0 mph6.4 kmh 29.95 in1014.2 mb 0.00 in0.0 mm 0.00 in/hr0.0 mm/hr 0.00 in0.0 mm
11:30 AM 63.3°F17.4°C 52.6°F11.4°C 68% 4.5 mph SE7.2 kmh SE 7.0 mph11.3 kmh 29.95 in1014.2 mb 0.00 in0.0 mm 0.00 in/hr0.0 mm/hr 0.00 in0.0 mm
11:20 AM 63.2°F17.3°C 53.6°F12.0°C 71% 2.9 mph S4.7 kmh S 6.0 mph9.7 kmh 29.94 in1013.9 mb 0.00 in0.0 mm 0.00 in/hr0.0 mm/hr 0.00 in0.0 mm
11:10 AM 62.2°F16.8°C 52.3°F11.3°C 70% 1.9 mph S3.1 kmh S 6.0 mph9.7 kmh 29.95 in1014.2 mb 0.00 in0.0 mm 0.00 in/hr0.0 mm/hr 0.00 in0.0 mm
11:00 AM 61.9°F16.6°C 52.8°F11.6°C 72% 4.3 mph SSE6.9 kmh SSE 7.0 mph11.3 kmh 29.95 in1014.2 mb 0.00 in0.0 mm 0.00 in/hr0.0 mm/hr 0.00 in0.0 mm
10:50 AM 61.9°F16.6°C 52.4°F11.3°C 71% 2.2 mph SW3.5 kmh SW 3.0 mph4.8 kmh 29.95 in1014.2 mb 0.00 in0.0 mm 0.00 in/hr0.0 mm/hr 0.00 in0.0 mm
10:40 AM 62.5°F16.9°C 53.0°F11.7°C 71% 3.6 mph SSE5.8 kmh SSE 5.0 mph8.0 kmh 29.95 in1014.2 mb 0.00 in0.0 mm 0.00 in/hr0.0 mm/hr 0.00 in0.0 mm
10:30 AM 61.5°F16.4°C 52.8°F11.6°C 73% 2.7 mph SE4.3 kmh SE 3.0 mph4.8 kmh 29.95 in1014.2 mb 0.00 in0.0 mm 0.00 in/hr0.0 mm/hr 0.00 in0.0 mm
10:20 AM 61.1°F16.2°C 52.0°F11.1°C 72% 2.4 mph WNW3.9 kmh WNW 6.0 mph9.7 kmh 29.95 in1014.2 mb 0.00 in0.0 mm 0.00 in/hr0.0 mm/hr 0.00 in0.0 mm
10:10 AM 61.3°F16.3°C 52.6°F11.4°C 73% 1.9 mph SW3.1 kmh SW 3.0 mph4.8 kmh 29.95 in1014.2 mb 0.00 in0.0 mm 0.00 in/hr0.0 mm/hr 0.00 in0.0 mm
10:00 AM 60.3°F15.7°C 52.7°F11.5°C 76% 2.5 mph SSW4.0 kmh SSW 4.0 mph6.4 kmh 29.95 in1014.2 mb 0.00 in0.0 mm 0.00 in/hr0.0 mm/hr 0.00 in0.0 mm
09:50 AM 59.6°F15.3°C 51.3°F10.7°C 74% 2.4 mph SSE3.9 kmh SSE 4.0 mph6.4 kmh 29.95 in1014.2 mb 0.00 in0.0 mm 0.00 in/hr0.0 mm/hr 0.00 in0.0 mm
09:40 AM 60.0°F15.6°C 51.3°F10.7°C 73% 3.9 mph SSE6.3 kmh SSE 5.0 mph8.0 kmh 29.95 in1014.2 mb 0.00 in0.0 mm 0.00 in/hr0.0 mm/hr 0.00 in0.0 mm
09:30 AM 61.1°F16.2°C 52.4°F11.3°C 73% 3.6 mph SE5.8 kmh SE 7.0 mph11.3 kmh 29.95 in1014.2 mb 0.00 in0.0 mm 0.00 in/hr0.0 mm/hr 0.00 in0.0 mm
09:20 AM 60.8°F16.0°C 52.9°F11.6°C 75% 2.6 mph S4.2 kmh S 5.0 mph8.0 kmh 29.95 in1014.2 mb 0.00 in0.0 mm 0.00 in/hr0.0 mm/hr 0.00 in0.0 mm
09:10 AM 59.7°F15.4°C 52.1°F11.2°C 76% 2.8 mph SE4.5 kmh SE 5.0 mph8.0 kmh 29.95 in1014.2 mb 0.00 in0.0 mm 0.00 in/hr0.0 mm/hr 0.00 in0.0 mm
09:00 AM 60.0°F15.6°C 52.1°F11.2°C 75% 4.2 mph SE6.8 kmh SE 6.0 mph9.7 kmh 29.94 in1013.9 mb 0.00 in0.0 mm 0.00 in/hr0.0 mm/hr 0.00 in0.0 mm
08:50 AM 59.2°F15.1°C 52.7°F11.5°C 79% 4.3 mph SE6.9 kmh SE 9.0 mph14.5 kmh 29.94 in1013.9 mb 0.00 in0.0 mm 0.00 in/hr0.0 mm/hr 0.00 in0.0 mm
08:40 AM 58.1°F14.5°C 52.3°F11.3°C 81% 1.7 mph SE2.7 kmh SE 3.0 mph4.8 kmh 29.95 in1014.2 mb 0.00 in0.0 mm 0.00 in/hr0.0 mm/hr 0.00 in0.0 mm
08:30 AM 57.6°F14.2°C 53.2°F11.8°C 85% 1.0 mph S1.6 kmh S 2.0 mph3.2 kmh 29.95 in1014.2 mb 0.00 in0.0 mm 0.00 in/hr0.0 mm/hr 0.00 in0.0 mm
08:20 AM 56.7°F13.7°C 52.6°F11.4°C 86% 3.8 mph SE6.1 kmh SE 6.0 mph9.7 kmh 29.95 in1014.2 mb 0.00 in0.0 mm 0.00 in/hr0.0 mm/hr 0.00 in0.0 mm
08:10 AM 56.0°F13.3°C 52.8°F11.6°C 89% 3.8 mph ESE6.1 kmh ESE 6.0 mph9.7 kmh 29.95 in1014.2 mb 0.00 in0.0 mm 0.00 in/hr0.0 mm/hr 0.00 in0.0 mm
08:00 AM 55.5°F13.1°C 52.3°F11.3°C 89% 2.8 mph SSE4.5 kmh SSE 4.0 mph6.4 kmh 29.95 in1014.2 mb 0.00 in0.0 mm 0.00 in/hr0.0 mm/hr 0.00 in0.0 mm
07:50 AM 55.1°F12.8°C 52.2°F11.2°C 90% 1.7 mph SE2.7 kmh SE 2.0 mph3.2 kmh 29.95 in1014.2 mb 0.00 in0.0 mm 0.00 in/hr0.0 mm/hr 0.00 in0.0 mm
07:40 AM 54.7°F12.6°C 51.9°F11.1°C 90% 3.2 mph SE5.1 kmh SE 6.0 mph9.7 kmh 29.95 in1014.2 mb 0.00 in0.0 mm 0.00 in/hr0.0 mm/hr 0.00 in0.0 mm
07:30 AM 54.5°F12.5°C 51.9°F11.1°C 91% 3.9 mph SE6.3 kmh SE 7.0 mph11.3 kmh 29.95 in1014.2 mb 0.00 in0.0 mm 0.00 in/hr0.0 mm/hr 0.00 in0.0 mm
07:20 AM 54.3°F12.4°C 51.7°F10.9°C 91% 3.0 mph ESE4.8 kmh ESE 5.0 mph8.0 kmh 29.95 in1014.2 mb 0.00 in0.0 mm 0.00 in/hr0.0 mm/hr 0.00 in0.0 mm
07:10 AM 54.0°F12.2°C 51.7°F10.9°C 92% 3.8 mph SE6.1 kmh SE 6.0 mph9.7 kmh 29.95 in1014.2 mb 0.00 in0.0 mm 0.00 in/hr0.0 mm/hr 0.00 in0.0 mm
07:00 AM 53.8°F12.1°C 51.5°F10.8°C 92% 2.4 mph SE3.9 kmh SE 3.0 mph4.8 kmh 29.95 in1014.2 mb 0.00 in0.0 mm 0.00 in/hr0.0 mm/hr 0.00 in0.0 mm
06:50 AM 53.6°F12.0°C 51.3°F10.7°C 92% 1.2 mph SSE1.9 kmh SSE 2.0 mph3.2 kmh 29.95 in1014.2 mb 0.00 in0.0 mm 0.00 in/hr0.0 mm/hr 0.00 in0.0 mm
06:40 AM 53.3°F11.8°C 51.0°F10.6°C 92% 1.2 mph SE1.9 kmh SE 3.0 mph4.8 kmh 29.95 in1014.2 mb 0.00 in0.0 mm 0.00 in/hr0.0 mm/hr 0.00 in0.0 mm
06:30 AM 53.1°F11.7°C 50.8°F10.4°C 92% 1.5 mph SE2.4 kmh SE 3.0 mph4.8 kmh 29.95 in1014.2 mb 0.00 in0.0 mm 0.00 in/hr0.0 mm/hr 0.00 in0.0 mm
06:20 AM 52.9°F11.6°C 50.6°F10.3°C 92% 1.5 mph SE2.4 kmh SE 2.0 mph3.2 kmh 29.95 in1014.2 mb 0.00 in0.0 mm 0.00 in/hr0.0 mm/hr 0.00 in0.0 mm
06:10 AM 52.7°F11.5°C 50.4°F10.2°C 92% 1.0 mph SE1.6 kmh SE 2.0 mph3.2 kmh 29.95 in1014.2 mb 0.00 in0.0 mm 0.00 in/hr0.0 mm/hr 0.00 in0.0 mm
06:00 AM 52.7°F11.5°C 50.4°F10.2°C 92% 0.8 mph SE1.3 kmh SE 1.0 mph1.6 kmh 29.95 in1014.2 mb 0.00 in0.0 mm 0.00 in/hr0.0 mm/hr 0.00 in0.0 mm
05:50 AM 52.7°F11.5°C 50.4°F10.2°C 92% 0.5 mph SE0.8 kmh SE 2.0 mph3.2 kmh 29.95 in1014.2 mb 0.00 in0.0 mm 0.00 in/hr0.0 mm/hr 0.00 in0.0 mm
05:40 AM 52.7°F11.5°C 50.4°F10.2°C 92% 1.5 mph SSE2.4 kmh SSE 2.0 mph3.2 kmh 29.95 in1014.2 mb 0.00 in0.0 mm 0.00 in/hr0.0 mm/hr 0.00 in0.0 mm
05:30 AM 52.5°F11.4°C 50.5°F10.3°C 93% 0.6 mph E1.0 kmh E 1.0 mph1.6 kmh 29.95 in1014.2 mb 0.00 in0.0 mm 0.00 in/hr0.0 mm/hr 0.00 in0.0 mm
05:20 AM 52.5°F11.4°C 50.2°F10.1°C 92% 0.2 mph E0.3 kmh E 1.0 mph1.6 kmh 29.95 in1014.2 mb 0.00 in0.0 mm 0.00 in/hr0.0 mm/hr 0.00 in0.0 mm
05:10 AM 52.7°F11.5°C 50.4°F10.2°C 92% 0.9 mph E1.4 kmh E 1.0 mph1.6 kmh 29.94 in1013.9 mb 0.00 in0.0 mm 0.00 in/hr0.0 mm/hr 0.00 in0.0 mm
05:00 AM 52.9°F11.6°C 50.7°F10.4°C 92% 0.9 mph ESE1.4 kmh ESE 2.0 mph3.2 kmh 29.94 in1013.9 mb 0.00 in0.0 mm 0.00 in/hr0.0 mm/hr 0.00 in0.0 mm
04:50 AM 53.0°F11.7°C 51.0°F10.6°C 93% 0.7 mph ESE1.1 kmh ESE 1.0 mph1.6 kmh 29.94 in1013.9 mb 0.00 in0.0 mm 0.00 in/hr0.0 mm/hr 0.00 in0.0 mm
04:40 AM 53.1°F11.7°C 51.1°F10.6°C 93% 0.2 mph ESE0.3 kmh ESE -- 29.94 in1013.9 mb 0.00 in0.0 mm 0.00 in/hr0.0 mm/hr 0.00 in0.0 mm
04:30 AM 53.1°F11.7°C 51.1°F10.6°C 93% Calm Calm -- 29.94 in1013.9 mb 0.00 in0.0 mm 0.00 in/hr0.0 mm/hr 0.00 in0.0 mm
04:20 AM 52.9°F11.6°C 50.9°F10.5°C 93% Calm Calm -- 29.94 in1013.9 mb 0.00 in0.0 mm 0.00 in/hr0.0 mm/hr 0.00 in0.0 mm
04:10 AM 52.7°F11.5°C 50.7°F10.4°C 93% 1.7 mph SSE2.7 kmh SSE 3.0 mph4.8 kmh 29.94 in1013.9 mb 0.00 in0.0 mm 0.00 in/hr0.0 mm/hr 0.00 in0.0 mm
04:00 AM 52.5°F11.4°C 50.5°F10.3°C 93% 1.2 mph SE1.9 kmh SE 3.0 mph4.8 kmh 29.94 in1013.9 mb 0.00 in0.0 mm 0.00 in/hr0.0 mm/hr 0.00 in0.0 mm
03:50 AM 52.4°F11.3°C 50.4°F10.2°C 93% 1.6 mph SE2.6 kmh SE 3.0 mph4.8 kmh 29.94 in1013.9 mb 0.00 in0.0 mm 0.00 in/hr0.0 mm/hr 0.00 in0.0 mm
03:40 AM 52.4°F11.3°C 50.4°F10.2°C 93% 1.6 mph SE2.6 kmh SE 5.0 mph8.0 kmh 29.94 in1013.9 mb 0.00 in0.0 mm 0.00 in/hr0.0 mm/hr 0.00 in0.0 mm
03:30 AM 52.7°F11.5°C 50.7°F10.4°C 93% 0.8 mph SE1.3 kmh SE 2.0 mph3.2 kmh 29.94 in1013.9 mb 0.00 in0.0 mm 0.00 in/hr0.0 mm/hr 0.00 in0.0 mm
03:20 AM 53.0°F11.7°C 51.0°F10.6°C 93% 1.2 mph SE1.9 kmh SE 2.0 mph3.2 kmh 29.94 in1013.9 mb 0.00 in0.0 mm 0.00 in/hr0.0 mm/hr 0.00 in0.0 mm
03:10 AM 53.1°F11.7°C 51.1°F10.6°C 93% 1.0 mph SE1.6 kmh SE 2.0 mph3.2 kmh 29.94 in1013.9 mb 0.00 in0.0 mm 0.00 in/hr0.0 mm/hr 0.00 in0.0 mm
03:00 AM 53.1°F11.7°C 51.1°F10.6°C 93% 1.9 mph ESE3.1 kmh ESE 3.0 mph4.8 kmh 29.94 in1013.9 mb 0.00 in0.0 mm 0.00 in/hr0.0 mm/hr 0.00 in0.0 mm
02:50 AM 53.1°F11.7°C 51.1°F10.6°C 93% 3.0 mph ESE4.8 kmh ESE 3.0 mph4.8 kmh 29.94 in1013.9 mb 0.00 in0.0 mm 0.00 in/hr0.0 mm/hr 0.00 in0.0 mm
02:40 AM 53.1°F11.7°C 51.4°F10.8°C 94% 2.6 mph SE4.2 kmh SE 5.0 mph8.0 kmh 29.94 in1013.9 mb 0.00 in0.0 mm 0.00 in/hr0.0 mm/hr 0.00 in0.0 mm
02:30 AM 53.2°F11.8°C 51.5°F10.8°C 94% 2.6 mph SE4.2 kmh SE 6.0 mph9.7 kmh 29.94 in1013.9 mb 0.00 in0.0 mm 0.00 in/hr0.0 mm/hr 0.00 in0.0 mm
02:20 AM 53.2°F11.8°C 51.5°F10.8°C 94% 2.2 mph ESE3.5 kmh ESE 5.0 mph8.0 kmh 29.94 in1013.9 mb 0.00 in0.0 mm 0.00 in/hr0.0 mm/hr 0.00 in0.0 mm
02:10 AM 53.1°F11.7°C 51.4°F10.8°C 94% 2.2 mph E3.5 kmh E 3.0 mph4.8 kmh 29.94 in1013.9 mb 0.00 in0.0 mm 0.00 in/hr0.0 mm/hr 0.00 in0.0 mm
02:00 AM 53.3°F11.8°C 51.6°F10.9°C 94% 2.0 mph SE3.2 kmh SE 3.0 mph4.8 kmh 29.95 in1014.2 mb 0.00 in0.0 mm 0.00 in/hr0.0 mm/hr 0.00 in0.0 mm
01:50 AM 53.6°F12.0°C 51.9°F11.1°C 94% 2.0 mph S3.2 kmh S 3.0 mph4.8 kmh 29.95 in1014.2 mb 0.00 in0.0 mm 0.00 in/hr0.0 mm/hr 0.00 in0.0 mm
01:40 AM 53.7°F12.1°C 52.0°F11.1°C 94% 1.0 mph ESE1.6 kmh ESE 2.0 mph3.2 kmh 29.94 in1013.9 mb 0.00 in0.0 mm 0.00 in/hr0.0 mm/hr 0.00 in0.0 mm
01:30 AM 53.5°F11.9°C 51.8°F11.0°C 94% 0.7 mph NW1.1 kmh NW 2.0 mph3.2 kmh 29.94 in1013.9 mb 0.00 in0.0 mm 0.00 in/hr0.0 mm/hr 0.00 in0.0 mm
01:20 AM 53.3°F11.8°C 51.3°F10.7°C 93% Calm Calm -- 29.94 in1013.9 mb 0.00 in0.0 mm 0.00 in/hr0.0 mm/hr 0.00 in0.0 mm
01:10 AM 53.2°F11.8°C 51.2°F10.7°C 93% Calm Calm -- 29.95 in1014.2 mb 0.00 in0.0 mm 0.00 in/hr0.0 mm/hr 0.00 in0.0 mm
01:00 AM 53.0°F11.7°C 51.3°F10.7°C 94% Calm Calm -- 29.95 in1014.2 mb 0.00 in0.0 mm 0.00 in/hr0.0 mm/hr 0.00 in0.0 mm
12:50 AM 52.7°F11.5°C 50.7°F10.4°C 93% 0.5 mph NW0.8 kmh NW 1.0 mph1.6 kmh 29.95 in1014.2 mb 0.00 in0.0 mm 0.00 in/hr0.0 mm/hr 0.00 in0.0 mm
12:40 AM 52.5°F11.4°C 50.5°F10.3°C 93% 0.5 mph NW0.8 kmh NW 1.0 mph1.6 kmh 29.94 in1013.9 mb 0.00 in0.0 mm 0.00 in/hr0.0 mm/hr 0.00 in0.0 mm
12:30 AM 52.3°F11.3°C 50.3°F10.2°C 93% 0.6 mph NW1.0 kmh NW 1.0 mph1.6 kmh 29.94 in1013.9 mb 0.00 in0.0 mm 0.00 in/hr0.0 mm/hr 0.00 in0.0 mm
12:20 AM 52.1°F11.2°C 50.1°F10.1°C 93% 0.4 mph NW0.6 kmh NW 1.0 mph1.6 kmh 29.94 in1013.9 mb 0.00 in0.0 mm 0.00 in/hr0.0 mm/hr 0.00 in0.0 mm
12:10 AM 51.7°F10.9°C 49.7°F9.8°C 93% 0.3 mph NW0.5 kmh NW 1.0 mph1.6 kmh 29.95 in1014.2 mb 0.00 in0.0 mm 0.00 in/hr0.0 mm/hr 0.00 in0.0 mm
12:00 AM 51.5°F10.8°C 49.5°F9.7°C 93% Calm Calm -- 29.95 in1014.2 mb 0.00 in0.0 mm 0.00 in/hr0.0 mm/hr 0.00 in0.0 mm